Time;durP1;ratioP1;P1;durP2;ratioP2;P2;SDS_P1;SDS_P2;PMS_P1;PMS_P2;Temp;Humidity;BMP_temperature;BMP_pressure;BME280_temperature;BME280_humidity;BME280_pressure;Samples;Min_cycle;Max_cycle;Signal;HPM_P1;HPM_P2
2021/12/19 00:01:47;;;;;;;17.52;11.12;;;;;;;1.68;75.14;94590.40;1695615;83;20994;-56
2021/12/19 00:04:17;;;;;;;9.23;7.67;;;;;;;1.71;75.01;94582.83;1719196;83;21065;-56
2021/12/19 00:09:20;;;;;;;9.58;7.62;;;;;;;1.66;75.27;94581.13;1722305;82;20970;-56
2021/12/19 00:11:46;;;;;;;9.98;8.33;;;;;;;1.66;75.23;94575.71;1722561;83;21133;-56
2021/12/19 00:14:15;;;;;;;10.10;8.73;;;;;;;1.63;75.48;94578.62;1722132;82;21010;-56
2021/12/19 00:16:48;;;;;;;10.10;8.08;;;;;;;1.70;75.63;94586.70;1722153;83;21066;-56
2021/12/19 00:19:17;;;;;;;;;;;;;;;1.74;75.09;94580.11;1725051;82;21458;-58
2021/12/19 00:21:45;;;;;;;12.25;8.80;;;;;;;1.72;75.02;94580.30;1722412;83;20454;-57
2021/12/19 00:24:14;;;;;;;9.95;8.83;;;;;;;1.71;75.31;94580.11;1722288;82;21108;-56
2021/12/19 00:26:41;;;;;;;9.03;8.13;;;;;;;1.77;75.39;94582.02;1721590;83;21005;-57
2021/12/19 00:29:08;;;;;;;8.55;7.67;;;;;;;1.82;75.03;94581.63;1722241;83;20978;-55
2021/12/19 00:31:35;;;;;;;10.20;7.80;;;;;;;1.83;74.99;94589.95;1722169;83;21028;-57
2021/12/19 00:34:02;;;;;;;9.05;8.03;;;;;;;1.83;74.84;94583.75;1696179;83;21478;-56
2021/12/19 00:36:30;;;;;;;9.23;8.33;;;;;;;1.84;75.10;94588.00;1722280;83;21217;-56
2021/12/19 00:38:57;;;;;;;30.45;27.73;;;;;;;1.89;75.11;94584.30;1722184;83;21494;-57
2021/12/19 00:41:26;;;;;;;9.75;8.75;;;;;;;1.91;75.08;94586.59;1695787;83;21014;-56
2021/12/19 00:43:56;;;;;;;62.58;53.85;;;;;;;1.96;75.32;94577.47;1722210;83;21010;-56
2021/12/19 00:46:27;;;;;;;64.03;48.55;;;;;;;2.04;75.36;94579.55;1722413;83;21069;-56
2021/12/19 00:48:55;;;;;;;28.30;25.32;;;;;;;2.10;75.14;94575.28;1722297;83;21975;-56
2021/12/19 00:51:24;;;;;;;34.80;31.23;;;;;;;2.13;75.33;94569.80;1722370;83;21013;-56
2021/12/19 00:53:52;;;;;;;17.25;15.10;;;;;;;2.17;75.24;94560.30;1722235;83;21022;-57
2021/12/19 00:56:19;;;;;;;44.88;23.38;;;;;;;2.19;75.28;94568.23;1722025;83;20986;-57
2021/12/19 00:58:46;;;;;;;49.18;25.57;;;;;;;2.17;75.34;94562.41;1722171;83;21049;-56
2021/12/19 01:01:13;;;;;;;19.23;16.55;;;;;;;2.13;75.43;94558.20;1722514;83;21114;-57
2021/12/19 01:03:44;;;;;;;19.45;16.73;;;;;;;2.14;75.54;94549.64;1722186;83;21052;-57
2021/12/19 01:06:09;;;;;;;15.05;13.48;;;;;;;2.14;75.47;94548.89;1722025;83;20954;-56
2021/12/19 01:08:38;;;;;;;10.75;9.60;;;;;;;2.13;75.77;94545.39;1722330;83;21006;-56
2021/12/19 01:11:04;;;;;;;9.85;8.95;;;;;;;2.15;75.82;94540.33;1722086;83;21096;-57
2021/12/19 01:13:31;;;;;;;9.95;8.80;;;;;;;2.14;75.97;94536.67;1722400;83;21129;-56
2021/12/19 01:16:02;;;;;;;9.18;8.15;;;;;;;2.13;76.23;94539.20;1722592;83;20958;-56
2021/12/19 01:18:28;;;;;;;10.88;8.85;;;;;;;2.12;76.50;94528.17;1722322;83;20982;-56
2021/12/19 01:20:55;;;;;;;11.63;9.05;;;;;;;2.11;76.56;94514.42;1722274;82;20970;-56
2021/12/19 01:23:26;;;;;;;11.60;8.20;;;;;;;2.16;76.61;94520.77;1722352;82;21061;-57
2021/12/19 01:25:54;;;;;;;9.85;8.85;;;;;;;2.18;76.33;94508.33;1722685;82;21810;-55
2021/12/19 01:28:21;;;;;;;15.08;11.05;;;;;;;2.12;76.37;94493.66;1722346;83;21029;-57
2021/12/19 01:30:48;;;;;;;10.60;7.95;;;;;;;2.03;76.44;94500.13;1722256;83;21021;-57
2021/12/19 01:33:16;;;;;;;11.65;8.60;;;;;;;1.99;76.79;94495.90;1722288;83;21009;-56
2021/12/19 01:35:43;;;;;;;12.65;9.18;;;;;;;1.98;76.81;94485.62;1722400;83;21021;-57
2021/12/19 01:38:10;;;;;;;9.40;8.10;;;;;;;1.93;76.79;94490.72;1722239;83;21881;-57
2021/12/19 01:40:37;;;;;;;10.40;7.00;;;;;;;1.94;76.93;94494.97;1722221;83;20986;-56
2021/12/19 01:43:05;;;;;;;9.98;8.50;;;;;;;1.93;76.86;94490.72;1722284;83;20970;-57
2021/12/19 01:45:36;;;;;;;12.23;10.58;;;;;;;1.87;77.00;94480.88;1722531;83;21061;-56
2021/12/19 01:48:06;;;;;;;8.98;7.97;;;;;;;1.90;77.60;94482.00;1722442;83;21528;-57
2021/12/19 01:50:33;;;;;;;9.23;7.47;;;;;;;1.91;77.31;94480.83;1722585;83;21764;-57
2021/12/19 01:53:03;;;;;;;18.85;11.38;;;;;;;1.90;77.48;94476.00;1722452;83;21025;-57
2021/12/19 01:55:33;;;;;;;11.03;8.95;;;;;;;1.94;77.64;94473.28;1722417;83;21033;-57
2021/12/19 01:58:03;;;;;;;9.60;8.45;;;;;;;1.97;77.12;94467.05;1722148;83;21096;-57
2021/12/19 02:00:39;;;;;;;9.25;7.37;;;;;;;1.95;77.12;94467.44;1722401;83;21049;-57
2021/12/19 02:03:07;;;;;;;8.43;7.33;;;;;;;1.97;77.11;94461.63;1695801;83;21461;-57
2021/12/19 02:05:34;;;;;;;16.20;14.90;;;;;;;1.94;77.02;94457.00;1722544;83;21014;-59
2021/12/19 02:08:04;;;;;;;8.93;7.85;;;;;;;1.96;77.02;94451.95;1722350;83;21014;-56
2021/12/19 02:10:31;;;;;;;9.00;7.80;;;;;;;1.98;76.76;94452.31;1722665;83;21109;-57
2021/12/19 02:12:59;;;;;;;8.30;7.22;;;;;;;1.99;76.93;94451.14;1695985;83;21453;-56
2021/12/19 02:15:28;;;;;;;9.53;7.80;;;;;;;2.04;76.91;94447.42;1722192;83;21164;-56
2021/12/19 02:18:00;;;;;;;11.68;10.28;;;;;;;2.08;76.75;94441.38;1722365;83;21422;-56
2021/12/19 02:20:38;;;;;;;14.07;11.63;;;;;;;2.09;76.93;94439.42;1696922;83;20970;-58
2021/12/19 02:23:05;;;;;;;10.55;9.55;;;;;;;2.10;76.76;94435.56;1722332;83;21013;-57
2021/12/19 02:25:32;;;;;;;7.42;6.72;;;;;;;2.14;76.77;94444.44;1722366;83;21009;-56
2021/12/19 02:27:59;;;;;;;6.70;6.10;;;;;;;2.17;76.58;94438.20;1695745;83;21132;-56
2021/12/19 02:30:26;;;;;;;8.40;7.60;;;;;;;2.20;76.62;94422.47;1696018;83;21042;-56
2021/12/19 02:32:55;;;;;;;6.97;6.37;;;;;;;2.21;76.22;94433.51;1722319;83;21102;-56
2021/12/19 02:35:26;;;;;;;10.25;9.25;;;;;;;2.23;76.39;94421.67;1722687;83;21037;-56
2021/12/19 02:48:38;;;;;;;17.45;13.22;;;;;;;2.30;75.59;94416.95;1722349;82;20974;-56
2021/12/19 02:51:06;;;;;;;8.13;7.33;;;;;;;2.35;75.53;94412.43;1695340;83;21104;-58
2021/12/19 02:53:39;;;;;;;8.83;7.92;;;;;;;2.43;74.94;94415.84;1722235;83;21157;-57
2021/12/19 02:56:08;;;;;;;8.30;7.53;;;;;;;2.39;74.77;94406.41;1722498;83;21446;-58
2021/12/19 02:58:39;;;;;;;6.35;5.85;;;;;;;2.33;74.79;94401.81;1722177;83;20986;-56
2021/12/19 03:01:10;;;;;;;6.30;5.72;;;;;;;2.25;74.59;94388.11;1722593;83;21030;-57
2021/12/19 03:03:36;;;;;;;7.37;6.67;;;;;;;2.15;74.81;94382.97;1722280;83;21026;-56
2021/12/19 03:06:05;;;;;;;8.15;7.40;;;;;;;2.12;75.00;94378.95;1722504;83;21151;-57
2021/12/19 03:08:41;;;;;;;10.65;9.55;;;;;;;2.12;75.32;94374.28;1722290;83;21528;-57
2021/12/19 03:19:29;;;;;;;6.92;6.10;;;;;;;2.27;74.96;94361.34;1722236;83;22418;-56
2021/12/19 03:21:56;;;;;;;7.22;6.47;;;;;;;2.23;74.43;94358.69;1722179;82;20982;-56
2021/12/19 03:24:23;;;;;;;6.97;6.28;;;;;;;2.15;74.49;94355.09;1722339;83;20998;-57
2021/12/19 03:26:50;;;;;;;7.60;6.50;;;;;;;2.10;74.61;94354.17;1722480;83;21540;-56
2021/12/19 03:29:19;;;;;;;6.30;5.70;;;;;;;2.07;74.81;94358.45;1695688;83;20989;-57
2021/12/19 03:31:45;;;;;;;7.30;6.60;;;;;;;2.02;74.78;94358.90;1696273;83;21154;-57
2021/12/19 03:34:12;;;;;;;7.00;6.33;;;;;;;1.99;74.98;94357.56;1722208;83;21060;-56
2021/12/19 03:36:39;;;;;;;7.83;6.10;;;;;;;1.95;75.10;94358.19;1722517;83;21017;-57
2021/12/19 03:39:14;;;;;;;8.28;6.60;;;;;;;1.94;75.22;94351.23;1722289;83;21101;-57
2021/12/19 03:41:37;;;;;;;6.33;5.78;;;;;;;1.92;75.50;94348.16;1721317;83;21430;-56
2021/12/19 03:44:04;;;;;;;6.08;5.47;;;;;;;1.89;75.58;94352.42;1722477;83;21115;-56
2021/12/19 03:46:32;;;;;;;7.90;7.28;;;;;;;1.86;75.75;94341.60;1722239;83;21025;-57
2021/12/19 03:49:02;;;;;;;6.87;6.28;;;;;;;1.84;76.01;94343.95;1722290;83;20990;-56
2021/12/19 03:51:29;;;;;;;6.58;5.97;;;;;;;1.84;76.07;94343.95;1722291;82;21141;-59
2021/12/19 03:53:56;;;;;;;7.22;6.53;;;;;;;1.81;75.87;94335.27;1722352;83;21031;-57
2021/12/19 03:56:28;;;;;;;9.00;8.20;;;;;;;1.82;75.84;94325.95;1722098;82;21063;-56
2021/12/19 03:58:57;;;;;;;7.33;6.60;;;;;;;1.82;75.82;94328.67;1721432;83;21009;-56
2021/12/19 04:01:25;;;;;;;8.95;7.58;;;;;;;1.77;75.99;94322.33;1722464;83;21544;-58
2021/12/19 04:03:55;;;;;;;6.95;6.35;;;;;;;1.74;75.97;94313.65;1721619;82;21033;-57
2021/12/19 04:06:22;;;;;;;6.22;5.62;;;;;;;1.75;75.91;94303.73;1722482;83;20954;-56
2021/12/19 04:08:50;;;;;;;6.10;5.70;;;;;;;1.75;75.59;94320.61;1722274;83;21759;-57
2021/12/19 04:11:17;;;;;;;7.37;6.67;;;;;;;1.73;75.50;94299.13;1696155;83;20966;-56
2021/12/19 04:13:44;;;;;;;7.97;7.25;;;;;;;1.72;75.58;94303.77;1722233;83;21018;-57
2021/12/19 04:16:12;;;;;;;8.63;7.22;;;;;;;1.74;75.73;94298.14;1696032;83;21006;-56
2021/12/19 04:18:41;;;;;;;7.75;6.95;;;;;;;1.79;75.67;94301.01;1722433;83;21615;-57
2021/12/19 04:21:07;;;;;;;6.83;6.12;;;;;;;1.82;75.61;94292.06;1722611;83;21145;-56
2021/12/19 04:23:34;;;;;;;7.45;6.75;;;;;;;1.80;75.64;94288.98;1722104;83;21525;-56
2021/12/19 04:26:03;;;;;;;7.92;7.12;;;;;;;1.77;75.70;94285.73;1695779;83;21564;-56
2021/12/19 04:28:30;;;;;;;6.92;6.35;;;;;;;1.75;75.94;94279.94;1722063;83;21135;-56
2021/12/19 04:30:59;;;;;;;6.58;5.97;;;;;;;1.75;75.99;94281.30;1722170;82;20965;-56
2021/12/19 04:33:28;;;;;;;7.08;6.47;;;;;;;1.74;76.07;94290.61;1722201;83;23343;-56
2021/12/19 04:36:00;;;;;;;7.53;6.72;;;;;;;1.73;76.15;94278.19;1722494;83;21027;-57
2021/12/19 04:44:30;;;;;;;6.17;5.67;;;;;;;1.73;76.96;94261.92;1722519;83;21463;-56
2021/12/19 04:59:55;;;;;;;7.60;6.90;;;;;;;1.66;78.17;94249.81;1722412;83;21139;-56
2021/12/19 05:15:50;;;;;;;10.28;8.18;;;;;;;1.78;77.66;94243.89;1722354;82;20967;-56
2021/12/19 05:18:16;;;;;;;8.38;7.37;;;;;;;1.85;77.41;94231.59;1696317;83;21490;-56
2021/12/19 05:20:53;;;;;;;7.55;6.85;;;;;;;1.91;76.95;94232.69;1722300;83;21532;-57
2021/12/19 05:23:22;;;;;;;7.10;6.40;;;;;;;1.94;76.42;94221.80;1720862;83;21025;-57
2021/12/19 05:25:43;;;;;;;7.03;6.33;;;;;;;1.97;75.61;94225.06;1720672;83;21644;-57
2021/12/19 05:28:10;;;;;;;7.97;7.10;;;;;;;1.98;74.99;94223.13;1695644;83;21075;-55
2021/12/19 05:30:36;;;;;;;7.05;6.40;;;;;;;2.02;74.69;94225.99;1722374;83;20969;-57
2021/12/19 05:33:06;;;;;;;8.80;6.33;;;;;;;2.09;74.71;94218.33;1635379;86;21019;-55
2021/12/19 05:46:22;;;;;;;7.47;6.72;;;;;;;2.22;73.83;94192.21;1670902;86;21394;-57
2021/12/19 05:48:53;;;;;;;9.03;7.03;;;;;;;2.24;73.41;94184.43;1670622;86;20982;-57
2021/12/19 05:51:20;;;;;;;10.55;8.00;;;;;;;2.23;73.09;94178.25;1643859;86;21475;-59
2021/12/19 05:53:46;;;;;;;17.27;14.03;;;;;;;2.19;72.92;94174.82;1643399;86;20974;-59
2021/12/19 05:56:13;;;;;;;13.38;9.90;;;;;;;2.14;72.89;94177.97;1669714;85;21549;-57
2021/12/19 05:58:43;;;;;;;10.43;9.43;;;;;;;2.08;72.75;94170.69;1669876;86;21096;-57
2021/12/19 06:01:10;;;;;;;23.05;16.52;;;;;;;2.01;72.95;94158.58;1642112;86;21108;-57
2021/12/19 06:03:37;;;;;;;16.35;12.80;;;;;;;1.98;73.25;94160.75;1669949;86;22042;-57
2021/12/19 06:06:05;;;;;;;17.40;13.70;;;;;;;2.00;73.09;94154.33;1669798;86;21049;-57
2021/12/19 06:08:32;;;;;;;21.27;16.12;;;;;;;2.01;73.11;94150.44;1662840;86;21011;-57
2021/12/19 06:11:02;;;;;;;14.85;12.95;;;;;;;2.02;73.16;94142.48;1662725;86;20981;-58
2021/12/19 06:13:29;;;;;;;18.02;14.43;;;;;;;2.08;72.90;94139.48;1641239;86;20977;-57
2021/12/19 06:15:58;;;;;;;25.02;19.40;;;;;;;2.12;72.67;94142.95;1669956;86;21936;-57
2021/12/19 06:18:28;;;;;;;23.27;18.57;;;;;;;2.11;72.70;94129.20;1636466;86;20997;-56
2021/12/19 06:20:58;;;;;;;14.75;11.90;;;;;;;2.15;72.78;94132.03;1662784;86;20958;-56
2021/12/19 06:23:25;;;;;;;13.80;12.03;;;;;;;2.15;72.43;94123.89;1662710;86;21474;-57
2021/12/19 06:25:53;;;;;;;23.38;17.77;;;;;;;2.08;72.42;94114.50;1662875;86;21414;-57
2021/12/19 06:28:21;;;;;;;59.60;28.23;;;;;;;2.09;72.67;94117.97;1669887;85;21163;-57
2021/12/19 06:30:51;;;;;;;55.40;29.52;;;;;;;2.16;72.65;94108.39;1662781;86;20971;-58
2021/12/19 06:33:20;;;;;;;58.17;32.35;;;;;;;2.27;72.64;94109.77;1641466;86;20978;-58
2021/12/19 06:35:47;;;;;;;19.73;15.85;;;;;;;2.35;72.25;94097.62;1641804;86;21006;-59
2021/12/19 06:38:15;;;;;;;14.58;11.83;;;;;;;2.42;71.89;94102.19;1662842;86;21050;-57
2021/12/19 06:40:44;;;;;;;15.05;11.53;;;;;;;2.50;71.50;94092.17;1669773;85;21211;-56
2021/12/19 06:43:11;;;;;;;13.25;10.88;;;;;;;2.53;71.44;94100.09;1662345;86;21557;-57
2021/12/19 06:45:38;;;;;;;11.95;9.10;;;;;;;2.55;71.43;94099.08;1614549;86;20938;-58
2021/12/19 06:48:05;;;;;;;10.20;8.50;;;;;;;2.59;71.30;94091.07;1662804;86;21012;-58
2021/12/19 06:50:34;;;;;;;14.50;11.08;;;;;;;2.65;70.69;94086.70;1662876;86;21033;-57
2021/12/19 06:53:01;;;;;;;10.85;9.68;;;;;;;2.66;70.62;94082.05;1662540;86;21194;-56
2021/12/19 06:55:28;;;;;;;8.80;7.33;;;;;;;2.76;70.49;94079.16;1662619;86;21051;-58
2021/12/19 06:57:55;;;;;;;8.35;7.40;;;;;;;2.81;69.97;94081.97;1656243;86;20994;-57
2021/12/19 07:00:24;;;;;;;9.70;8.50;;;;;;;2.82;69.76;94072.06;1653444;86;21002;-57
2021/12/19 07:02:53;;;;;;;9.75;7.75;;;;;;;2.87;69.83;94068.11;1634512;86;21058;-58
2021/12/19 07:05:22;;;;;;;15.05;11.75;;;;;;;2.97;69.38;94072.57;1653597;86;21982;-57
2021/12/19 07:07:49;;;;;;;11.38;9.33;;;;;;;2.97;69.06;94079.36;1707362;84;21022;-58
2021/12/19 07:10:18;;;;;;;10.53;8.50;;;;;;;2.95;68.74;94066.79;1709091;82;21014;-56
2021/12/19 07:12:45;;;;;;;11.90;8.33;;;;;;;2.89;68.86;94069.21;1688467;84;21023;-56
2021/12/19 07:15:15;;;;;;;8.05;7.28;;;;;;;2.82;68.87;94066.62;1709032;84;21029;-59
2021/12/19 07:17:42;;;;;;;13.98;10.08;;;;;;;2.82;69.11;94071.28;1689156;84;21156;-59
2021/12/19 07:20:11;;;;;;;14.55;10.80;;;;;;;2.86;69.13;94063.86;1708962;84;21117;-59
2021/12/19 07:22:41;;;;;;;23.52;17.73;;;;;;;2.91;68.92;94057.34;1708876;84;20939;-58
2021/12/19 07:25:09;;;;;;;9.00;8.08;;;;;;;2.92;68.89;94047.25;1708966;84;20987;-58
2021/12/19 07:27:36;;;;;;;8.20;7.30;;;;;;;2.94;68.45;94044.30;1709073;84;21018;-57
2021/12/19 07:30:08;;;;;;;12.20;8.78;;;;;;;2.92;68.59;94037.17;1708941;83;21154;-57
2021/12/19 07:32:37;;;;;;;11.55;9.73;;;;;;;2.87;68.60;94033.55;1709072;84;21029;-60
2021/12/19 07:35:10;;;;;;;20.12;16.12;;;;;;;2.84;68.70;94044.50;1708879;84;21010;-57
2021/12/19 07:37:37;;;;;;;40.25;32.35;;;;;;;2.81;68.75;94034.44;1709002;84;20974;-59
2021/12/19 07:40:16;;;;;;;32.42;26.05;;;;;;;2.82;68.91;94038.69;1689153;84;20978;-58
2021/12/19 07:42:43;;;;;;;47.75;36.03;;;;;;;2.83;68.90;94036.18;1708902;84;21161;-57
2021/12/19 07:45:12;;;;;;;21.55;17.12;;;;;;;2.87;68.71;94026.02;1689037;84;21015;-56
2021/12/19 07:47:41;;;;;;;9.50;8.60;;;;;;;2.95;68.62;94038.27;1708918;84;20983;-56
2021/12/19 07:50:09;;;;;;;11.40;10.20;;;;;;;3.13;68.46;94029.20;1688554;84;20962;-57
2021/12/19 07:52:40;;;;;;;11.22;8.75;;;;;;;3.31;68.30;94024.19;1708895;84;21010;-57
2021/12/19 07:55:07;;;;;;;13.70;9.95;;;;;;;3.46;68.08;94028.17;1709093;83;21503;-56
2021/12/19 07:57:34;;;;;;;20.12;12.50;;;;;;;3.58;67.63;94021.50;1714374;83;21105;-58
2021/12/19 08:00:02;;;;;;;20.65;12.70;;;;;;;3.60;67.44;94020.48;1722242;83;21072;-57
2021/12/19 08:02:30;;;;;;;12.98;9.18;;;;;;;3.59;67.02;94013.51;1720518;83;21121;-57
2021/12/19 08:04:57;;;;;;;35.00;19.37;;;;;;;3.50;66.97;94018.16;1722168;83;20967;-57
2021/12/19 08:07:24;;;;;;;28.30;16.70;;;;;;;3.40;67.16;94012.19;1695672;83;21146;-58
2021/12/19 08:10:12;;;;;;;15.00;10.30;;;;;;;3.30;67.50;94011.79;1722166;82;21065;-57
2021/12/19 08:12:28;;;;;;;25.65;16.70;;;;;;;3.21;67.55;94011.59;1720017;83;21520;-58
2021/12/19 08:14:55;;;;;;;30.12;20.25;;;;;;;3.27;68.07;94015.34;1722198;83;20981;-57
2021/12/19 08:17:28;;;;;;;13.62;10.82;;;;;;;3.49;68.11;94015.88;1722348;83;21085;-58
2021/12/19 08:19:55;;;;;;;11.50;8.73;;;;;;;3.76;67.05;94017.23;1721538;83;21163;-57
2021/12/19 08:22:22;;;;;;;18.70;11.45;;;;;;;3.93;66.47;94024.83;1722579;83;21114;-57
2021/12/19 08:24:50;;;;;;;18.12;13.60;;;;;;;4.03;66.53;94017.78;1695821;83;20982;-57
2021/12/19 08:27:18;;;;;;;13.83;10.93;;;;;;;4.06;65.83;94010.74;1722386;83;21013;-58
2021/12/19 08:29:46;;;;;;;15.30;11.57;;;;;;;3.95;65.82;94020.50;1722418;83;20986;-58
2021/12/19 08:32:13;;;;;;;15.10;10.45;;;;;;;3.84;65.71;94024.65;1722370;83;21133;-57
2021/12/19 08:34:40;;;;;;;12.85;10.95;;;;;;;3.68;66.07;94026.71;1722274;83;20962;-58
2021/12/19 08:37:07;;;;;;;12.65;9.38;;;;;;;3.56;66.43;94018.44;1722396;83;20982;-57
2021/12/19 08:39:34;;;;;;;11.12;8.75;;;;;;;3.47;66.61;94006.59;1722481;83;21029;-58
2021/12/19 08:42:01;;;;;;;25.85;16.32;;;;;;;3.34;66.94;94007.05;1722410;83;21065;-57
2021/12/19 08:44:28;;;;;;;20.25;12.63;;;;;;;3.25;67.37;94010.93;1722468;83;21820;-57
2021/12/19 08:46:55;;;;;;;30.68;18.23;;;;;;;3.31;67.55;94016.04;1722389;83;21014;-58
2021/12/19 08:49:25;;;;;;;31.25;18.12;;;;;;;3.63;67.36;94002.73;1722244;83;21070;-57
2021/12/19 08:51:55;;;;;;;18.50;12.05;;;;;;;4.02;66.73;93980.13;1722461;83;21006;-57
2021/12/19 08:54:22;;;;;;;19.15;12.03;;;;;;;4.37;65.75;93963.71;1722509;83;21572;-56
2021/12/19 08:56:50;;;;;;;19.73;12.82;;;;;;;4.57;64.61;93961.65;1722266;83;21136;-57
2021/12/19 08:59:17;;;;;;;16.00;10.43;;;;;;;4.59;63.96;93957.89;1708840;83;21006;-58
2021/12/19 09:01:44;;;;;;;19.27;12.00;;;;;;;4.68;63.78;93943.09;1709003;84;21078;-58
2021/12/19 09:04:13;;;;;;;16.97;11.68;;;;;;;4.92;63.11;93941.66;1709111;84;21191;-57
2021/12/19 09:06:40;;;;;;;12.07;9.20;;;;;;;5.03;62.82;93936.69;1688982;84;20983;-58
2021/12/19 09:09:09;;;;;;;15.72;10.00;;;;;;;5.07;62.28;93938.72;1709033;84;21140;-58
2021/12/19 09:11:36;;;;;;;14.85;9.73;;;;;;;5.19;62.20;93928.43;1688957;84;21434;-57
2021/12/19 09:14:06;;;;;;;10.08;7.75;;;;;;;5.31;61.51;93922.25;1709014;83;20978;-58
2021/12/19 09:16:33;;;;;;;10.65;8.23;;;;;;;5.35;60.99;93919.59;1708949;83;21022;-58
2021/12/19 09:19:00;;;;;;;12.18;8.40;;;;;;;5.38;60.72;93911.91;1709058;84;20986;-57
2021/12/19 09:21:28;;;;;;;19.75;10.03;;;;;;;5.42;60.98;93896.20;1709049;84;21137;-56
2021/12/19 09:23:58;;;;;;;15.30;8.75;;;;;;;5.70;60.62;93890.48;1708989;84;20955;-58
2021/12/19 09:26:26;;;;;;;12.25;8.40;;;;;;;5.85;60.28;93877.97;1688963;84;21007;-58
2021/12/19 09:28:53;;;;;;;12.70;9.48;;;;;;;5.86;59.96;93872.09;1708997;83;21010;-58
2021/12/19 09:31:22;;;;;;;17.48;9.35;;;;;;;5.93;59.62;93870.48;1689159;84;21462;-57
2021/12/19 09:33:50;;;;;;;12.20;9.40;;;;;;;6.19;59.23;93878.79;1709024;83;20955;-59
2021/12/19 09:36:17;;;;;;;10.20;8.55;;;;;;;6.50;58.09;93864.68;1709034;84;21003;-56
2021/12/19 09:38:48;;;;;;;10.10;8.40;;;;;;;6.53;57.49;93861.06;1709018;84;21026;-57
2021/12/19 09:41:27;;;;;;;12.43;10.13;;;;;;;6.42;57.49;93857.16;1708989;82;21031;-57
2021/12/19 09:43:46;;;;;;;11.45;9.03;;;;;;;6.34;58.01;93848.44;1687247;84;20966;-57
2021/12/19 09:46:16;;;;;;;10.15;7.42;;;;;;;6.34;58.27;93853.16;1709046;82;21948;-57
2021/12/19 09:48:45;;;;;;;11.68;8.80;;;;;;;6.33;58.15;93849.66;1744125;82;21086;-58
2021/12/19 09:51:16;;;;;;;9.80;8.38;;;;;;;6.43;57.99;93854.59;1723506;82;21485;-58
2021/12/19 09:53:43;;;;;;;11.45;7.97;;;;;;;6.64;57.32;93845.08;1744060;82;21002;-57
2021/12/19 09:56:11;;;;;;;11.50;8.78;;;;;;;6.75;57.17;93840.01;1744292;82;21122;-57
2021/12/19 09:58:39;;;;;;;10.48;8.58;;;;;;;6.77;57.03;93843.64;1715720;82;21142;-58
2021/12/19 10:01:10;;;;;;;11.03;8.13;;;;;;;6.98;57.06;93846.39;1737165;82;22133;-58
2021/12/19 10:03:36;;;;;;;11.30;8.25;;;;;;;7.43;55.79;93834.34;1737602;82;20958;-57
2021/12/19 10:06:23;;;;;;;12.50;8.15;;;;;;;7.93;54.67;93821.02;1737574;82;20999;-58
2021/12/19 10:09:11;;;;;;;11.35;8.18;;;;;;;8.30;53.64;93817.17;1737638;82;21492;-56
2021/12/19 10:14:32;;;;;;;10.60;9.18;;;;;;;9.11;51.33;93826.75;1737582;82;20999;-58
2021/12/19 10:17:05;;;;;;;14.53;11.73;;;;;;;9.25;50.83;93820.64;1737565;82;21102;-56
2021/12/19 10:19:45;;;;;;;15.75;11.50;;;;;;;9.16;50.51;93828.88;1737614;82;20999;-57
2021/12/19 10:22:38;;;;;;;12.65;10.78;;;;;;;8.95;51.01;93816.10;1737643;82;21079;-57
2021/12/19 10:25:23;;;;;;;9.38;8.38;;;;;;;8.89;51.33;93816.58;1737615;82;20887;-57
2021/12/19 10:28:00;;;;;;;7.10;6.37;;;;;;;9.05;51.30;93806.66;1737587;82;21026;-57
2021/12/19 10:30:37;;;;;;;11.15;7.15;;;;;;;9.41;50.51;93796.34;1737653;82;20987;-56
2021/12/19 10:33:08;;;;;;;8.55;7.72;;;;;;;9.69;49.17;93795.03;1737560;82;21426;-56
2021/12/19 10:35:43;;;;;;;6.87;6.15;;;;;;;10.04;49.31;93792.59;1737608;82;21426;-57
2021/12/19 10:38:32;;;;;;;6.65;6.05;;;;;;;10.41;47.81;93783.67;1737671;82;21789;-56
2021/12/19 10:41:09;;;;;;;5.70;5.20;;;;;;;10.46;47.86;93793.24;1675876;82;20967;-58
2021/12/19 10:43:45;;;;;;;18.98;17.20;;;;;;;10.41;47.46;93792.52;1689524;82;20943;-59
2021/12/19 10:46:14;;;;;;;23.98;21.57;;;;;;;10.45;47.40;93794.47;1737291;82;21462;-58
2021/12/19 10:48:42;;;;;;;12.95;11.25;;;;;;;10.47;47.43;93787.89;1737836;82;21125;-56
2021/12/19 10:51:15;;;;;;;53.35;36.98;;;;;;;10.42;47.43;93783.05;1737641;82;21403;-57
2021/12/19 10:53:49;;;;;;;;;;;;;;;10.25;48.03;93782.70;1740065;82;21070;-58
2021/12/19 10:56:19;;;;;;;14.53;10.45;;;;;;;10.13;47.55;93785.69;1710809;82;20168;-61
2021/12/19 10:58:56;;;;;;;16.73;14.13;;;;;;;9.84;47.97;93794.48;1745462;82;20962;-59
2021/12/19 11:01:35;;;;;;;14.25;11.38;;;;;;;9.35;48.57;93776.23;1752822;81;21029;-58
2021/12/19 11:04:12;;;;;;;4.62;4.22;;;;;;;8.83;49.25;93786.85;1725031;82;22025;-57
2021/12/19 11:06:49;;;;;;;14.05;12.47;;;;;;;8.36;50.37;93789.31;1752615;81;21093;-57
2021/12/19 11:09:26;;;;;;;10.65;9.10;;;;;;;8.12;50.96;93780.13;1752771;82;20971;-57
2021/12/19 11:12:07;;;;;;;6.78;5.42;;;;;;;8.01;51.70;93779.02;1752735;82;21029;-57
2021/12/19 11:14:40;;;;;;;13.58;12.25;;;;;;;7.79;52.17;93770.93;1752641;82;20974;-56
2021/12/19 11:17:10;;;;;;;8.15;7.33;;;;;;;7.53;53.04;93760.04;1752770;82;21218;-56
2021/12/19 11:19:41;;;;;;;8.45;7.60;;;;;;;7.31;53.72;93765.45;1752640;82;21033;-57
2021/12/19 11:22:13;;;;;;;7.28;6.65;;;;;;;7.13;54.45;93757.16;1752646;81;20958;-57
2021/12/19 11:24:40;;;;;;;8.98;7.90;;;;;;;6.98;54.80;93756.76;1752819;81;20986;-57
2021/12/19 11:27:07;;;;;;;12.73;10.30;;;;;;;6.84;55.75;93764.11;1725785;81;20978;-58
2021/12/19 11:29:36;;;;;;;11.95;8.40;;;;;;;6.83;56.16;93768.06;1752611;81;20963;-58
2021/12/19 11:32:08;;;;;;;8.10;6.83;;;;;;;6.80;56.60;93768.95;1725688;81;21637;-57
2021/12/19 11:35:02;;;;;;;41.05;32.28;;;;;;;6.67;56.87;93757.36;1716598;83;21073;-59
2021/12/19 11:37:46;;;;;;;54.45;34.55;;;;;;;6.57;57.34;93761.22;1664096;85;21003;-57
2021/12/19 11:40:18;;;;;;;84.83;51.77;;;;;;;6.41;57.88;93757.31;1688158;85;21553;-59
2021/12/19 11:42:45;;;;;;;19.67;14.33;;;;;;;6.22;58.29;93758.37;1661898;86;21152;-58
2021/12/19 11:48:00;;;;;;;29.07;21.60;;;;;;;6.00;58.00;93748.78;1662161;86;21030;-58
2021/12/19 11:50:29;;;;;;;16.07;13.13;;;;;;;5.89;58.41;93751.70;1664915;86;21013;-57
2021/12/19 11:53:01;;;;;;;8.85;7.50;;;;;;;5.76;59.13;93750.35;1656799;86;21069;-57
2021/12/19 11:55:43;;;;;;;7.58;6.60;;;;;;;5.76;57.82;93752.33;1655714;86;21117;-57
2021/12/19 11:58:17;;;;;;;12.05;10.75;;;;;;;5.79;57.44;93761.03;1663424;86;21495;-58
2021/12/19 12:01:07;;;;;;;8.33;7.62;;;;;;;5.68;57.20;93770.12;1722497;83;21501;-57
2021/12/19 12:03:48;;;;;;;7.45;6.22;;;;;;;5.54;57.11;93763.16;1722397;83;21006;-58
2021/12/19 12:06:20;;;;;;;6.50;5.53;;;;;;;5.44;56.88;93752.59;1722054;83;21065;-57
2021/12/19 12:09:23;;;;;;;6.67;6.00;;;;;;;5.36;56.76;93744.46;1723004;83;21140;-57
2021/12/19 12:12:11;;;;;;;5.62;5.12;;;;;;;5.32;57.14;93749.27;1722520;83;20942;-57
2021/12/19 12:14:51;;;;;;;11.63;7.80;;;;;;;5.27;57.19;93737.56;1722653;83;21005;-58
2021/12/19 12:17:23;;;;;;;5.75;5.17;;;;;;;5.19;57.50;93749.13;1722699;83;20962;-58
2021/12/19 12:19:56;;;;;;;6.53;5.42;;;;;;;5.06;57.54;93739.59;1722676;83;20966;-58
2021/12/19 12:22:37;;;;;;;13.40;8.45;;;;;;;4.99;57.39;93725.41;1722588;83;21115;-56
2021/12/19 12:25:11;;;;;;;15.20;10.60;;;;;;;4.96;57.88;93717.50;1721131;83;21087;-56
2021/12/19 12:27:56;;;;;;;10.88;8.63;;;;;;;4.94;58.42;93718.54;1714373;83;20981;-57
2021/12/19 12:30:36;;;;;;;15.30;9.48;;;;;;;5.04;58.17;93718.83;1722435;83;20966;-56
2021/12/19 12:33:10;;;;;;;14.03;10.35;;;;;;;5.08;57.93;93719.47;1722369;83;21056;-57
2021/12/19 12:35:41;;;;;;;15.13;11.05;;;;;;;5.12;57.93;93716.64;1722433;83;21430;-56
2021/12/19 12:38:09;;;;;;;16.32;11.63;;;;;;;5.08;58.04;93711.30;1722479;83;20966;-56
2021/12/19 12:43:27;;;;;;;12.37;9.28;;;;;;;5.19;58.88;93706.25;1699248;83;20970;-57
2021/12/19 12:46:01;;;;;;;12.88;10.40;;;;;;;5.24;58.89;93716.02;1722517;83;20990;-59
2021/12/19 12:48:53;;;;;;;12.03;9.83;;;;;;;5.36;58.79;93707.66;1722873;83;21478;-56
2021/12/19 12:51:45;;;;;;;22.50;17.02;;;;;;;5.44;58.79;93707.60;1722588;83;21410;-57
2021/12/19 12:54:15;;;;;;;17.07;11.48;;;;;;;5.48;58.28;93712.33;1722590;83;21009;-58
2021/12/19 12:56:49;;;;;;;18.27;11.53;;;;;;;5.49;57.75;93712.49;1722858;83;21488;-57
2021/12/19 12:59:25;;;;;;;19.77;11.73;;;;;;;5.45;58.43;93703.05;1722275;83;20962;-57
2021/12/19 13:02:07;;;;;;;11.53;8.23;;;;;;;5.39;58.50;93705.44;1723116;83;21393;-56